Time;durP1;ratioP1;P1;durP2;ratioP2;P2;SDS_P1;SDS_P2;PMS_P1;PMS_P2;Temp;Humidity;BMP_temperature;BMP_pressure;BME280_temperature;BME280_humidity;BME280_pressure;Samples;Min_cycle;Max_cycle;Signal;HPM_P1;HPM_P2
2021/12/09 05:02:21;;;;;;;14.43;5.80;;;3.30;99.70;;;;;;5073783;28;20176;-64
2021/12/09 05:04:48;;;;;;;16.10;5.90;;;3.30;99.70;;;;;;5073484;28;20283;-65
2021/12/09 05:07:15;;;;;;;16.73;6.07;;;3.30;99.70;;;;;;5073614;28;20453;-65
2021/12/09 05:09:49;;;;;;;13.90;5.80;;;3.20;99.70;;;;;;5073416;28;20470;-65
2021/12/09 05:12:17;;;;;;;11.30;5.00;;;3.30;99.70;;;;;;5073769;28;20442;-64
2021/12/09 05:14:44;;;;;;;13.10;5.70;;;3.40;99.70;;;;;;5073051;28;20570;-65
2021/12/09 05:17:13;;;;;;;13.50;5.33;;;3.40;99.70;;;;;;5073410;28;20478;-65
2021/12/09 05:19:40;;;;;;;18.27;5.97;;;3.40;99.70;;;;;;5073160;28;20886;-63
2021/12/09 05:22:06;;;;;;;15.33;6.50;;;3.40;99.70;;;;;;5073359;28;20439;-64
2021/12/09 05:24:34;;;;;;;15.33;5.40;;;3.40;99.70;;;;;;5072922;28;21016;-64
2021/12/09 05:27:02;;;;;;;11.67;5.27;;;3.30;99.70;;;;;;5073216;28;20449;-64
2021/12/09 05:29:33;;;;;;;15.90;5.40;;;3.40;99.70;;;;;;5072926;28;20478;-64
2021/12/09 05:32:08;;;;;;;13.43;5.30;;;3.30;99.70;;;;;;5073248;28;20492;-66
2021/12/09 05:34:38;;;;;;;19.43;5.40;;;3.20;99.70;;;;;;5072745;28;20478;-64
2021/12/09 05:37:06;;;;;;;16.57;5.17;;;3.20;99.70;;;;;;5072958;28;20454;-64
2021/12/09 05:39:34;;;;;;;14.40;5.33;;;3.30;99.70;;;;;;5072823;28;20474;-64
2021/12/09 05:42:01;;;;;;;12.27;5.10;;;3.30;99.70;;;;;;5072895;28;20445;-66
2021/12/09 05:44:27;;;;;;;11.60;5.37;;;3.30;99.70;;;;;;5072438;28;20442;-65
2021/12/09 05:46:54;;;;;;;21.00;6.17;;;3.50;99.70;;;;;;5068136;28;20889;-65
2021/12/09 05:49:21;;;;;;;10.40;4.47;;;3.60;99.70;;;;;;5068540;28;20903;-65
2021/12/09 05:51:49;;;;;;;12.10;4.60;;;4.10;99.70;;;;;;5066860;28;20466;-65
2021/12/09 05:54:16;;;;;;;14.70;5.60;;;4.00;99.70;;;;;;5063667;28;20844;-64
2021/12/09 05:56:43;;;;;;;10.27;4.10;;;3.80;99.70;;;;;;5071527;28;20461;-64
2021/12/09 05:59:11;;;;;;;10.00;4.20;;;4.00;99.70;;;;;;5064295;28;20490;-63
2021/12/09 06:01:40;;;;;;;14.97;5.07;;;3.90;99.70;;;;;;5064355;28;20836;-64
2021/12/09 06:04:08;;;;;;;12.97;5.00;;;3.80;99.70;;;;;;5062177;28;20463;-64
2021/12/09 06:06:35;;;;;;;14.10;4.93;;;3.70;99.70;;;;;;5066139;28;20458;-64
2021/12/09 06:09:04;;;;;;;13.70;4.70;;;3.60;99.70;;;;;;5063215;28;20486;-64
2021/12/09 06:11:31;;;;;;;13.53;4.67;;;3.50;99.70;;;;;;5062275;28;20439;-65
2021/12/09 06:13:58;;;;;;;25.07;5.93;;;3.40;99.70;;;;;;5065623;28;20489;-65
2021/12/09 06:16:24;;;;;;;12.33;5.17;;;3.40;99.70;;;;;;5070259;28;20873;-66
2021/12/09 06:18:51;;;;;;;14.47;5.30;;;3.30;99.70;;;;;;5070680;28;20489;-65
2021/12/09 06:21:19;;;;;;;14.20;5.30;;;3.30;99.70;;;;;;5071512;28;20443;-64
2021/12/09 06:23:46;;;;;;;18.87;5.37;;;3.30;99.70;;;;;;5072017;28;20542;-65
2021/12/09 06:26:14;;;;;;;23.30;4.73;;;3.40;99.70;;;;;;5070570;28;20446;-65
2021/12/09 06:28:40;;;;;;;12.57;5.10;;;3.50;99.70;;;;;;5071405;28;20474;-64
2021/12/09 06:31:08;;;;;;;14.30;5.50;;;3.30;99.70;;;;;;5071104;28;20446;-66
2021/12/09 06:33:35;;;;;;;17.97;4.60;;;3.30;99.70;;;;;;5070158;28;20442;-65
2021/12/09 06:36:02;;;;;;;8.87;4.10;;;3.20;99.70;;;;;;5071136;28;20447;-66
2021/12/09 06:38:29;;;;;;;16.87;4.70;;;3.20;99.70;;;;;;5071718;28;20462;-64
2021/12/09 06:40:55;;;;;;;15.07;4.23;;;3.10;99.70;;;;;;5071770;28;20995;-64
2021/12/09 06:43:23;;;;;;;12.83;4.10;;;3.40;99.70;;;;;;5070668;28;20944;-64
2021/12/09 06:45:51;;;;;;;8.43;4.27;;;3.50;99.70;;;;;;5069356;28;20438;-65
2021/12/09 06:48:17;;;;;;;8.20;3.90;;;3.40;99.70;;;;;;5070717;28;20817;-64
2021/12/09 06:50:44;;;;;;;13.60;4.20;;;3.30;99.70;;;;;;5071287;28;20454;-64
2021/12/09 06:53:14;;;;;;;12.30;4.00;;;3.30;99.70;;;;;;5071625;28;20490;-65
2021/12/09 06:55:41;;;;;;;7.60;3.90;;;3.10;99.70;;;;;;5070971;28;20515;-64
2021/12/09 06:58:08;;;;;;;9.53;4.20;;;3.20;99.70;;;;;;5071424;28;20515;-64
2021/12/09 07:00:41;;;;;;;13.83;4.87;;;3.20;99.70;;;;;;5066677;28;20877;-64
2021/12/09 07:03:08;;;;;;;12.90;3.93;;;3.10;99.70;;;;;;5070982;28;20525;-64
2021/12/09 07:05:36;;;;;;;8.40;4.17;;;3.10;99.70;;;;;;5070853;28;20439;-64
2021/12/09 07:08:05;;;;;;;14.13;4.50;;;3.00;99.70;;;;;;5071214;28;21021;-64
2021/12/09 07:10:32;;;;;;;12.80;4.70;;;3.00;99.70;;;;;;5071002;28;20901;-64
2021/12/09 07:12:59;;;;;;;13.60;4.80;;;3.00;99.70;;;;;;5071342;28;20465;-64
2021/12/09 07:15:25;;;;;;;10.17;4.33;;;3.10;99.70;;;;;;5070685;28;20478;-64
2021/12/09 07:17:53;;;;;;;11.57;4.50;;;3.20;99.70;;;;;;5070833;28;20453;-66
2021/12/09 07:20:23;;;;;;;11.50;4.53;;;3.50;99.70;;;;;;5071196;28;20751;-65
2021/12/09 07:22:51;;;;;;;11.50;4.83;;;3.50;99.70;;;;;;5071427;28;20477;-64
2021/12/09 07:25:20;;;;;;;12.33;4.80;;;3.30;99.70;;;;;;5070715;28;20504;-64
2021/12/09 07:27:48;;;;;;;12.60;4.70;;;3.20;99.70;;;;;;5071037;28;20439;-63
2021/12/09 07:30:17;;;;;;;12.90;4.33;;;3.10;99.70;;;;;;5108607;22;20501;-63
2021/12/09 07:32:44;;;;;;;11.20;4.33;;;3.40;99.70;;;;;;5071438;28;20439;-61
2021/12/09 07:35:12;;;;;;;10.07;3.83;;;3.50;99.70;;;;;;5071589;28;20505;-59
2021/12/09 07:37:39;;;;;;;11.50;4.23;;;3.60;99.70;;;;;;5072040;28;20450;-63
2021/12/09 07:40:09;;;;;;;8.63;4.50;;;3.80;99.70;;;;;;5071213;28;20463;-62
2021/12/09 07:42:36;;;;;;;10.67;4.60;;;3.80;99.70;;;;;;5070688;28;20478;-63
2021/12/09 07:45:03;;;;;;;11.70;4.33;;;3.80;99.70;;;;;;5070796;28;20442;-60
2021/12/09 07:47:30;;;;;;;10.60;4.70;;;3.80;99.70;;;;;;5070701;28;20443;-63
2021/12/09 07:49:57;;;;;;;8.97;3.83;;;3.90;99.70;;;;;;5070832;28;20892;-60
2021/12/09 07:52:25;;;;;;;9.13;4.30;;;3.80;99.70;;;;;;5070840;28;20443;-61
2021/12/09 07:54:51;;;;;;;7.83;4.23;;;3.70;99.70;;;;;;5070619;28;20485;-62
2021/12/09 07:57:18;;;;;;;13.47;5.13;;;4.00;99.70;;;;;;5070953;28;20504;-61
2021/12/09 07:59:45;;;;;;;13.00;5.23;;;3.80;99.70;;;;;;5069823;28;20467;-62
2021/12/09 08:02:12;;;;;;;12.50;4.70;;;3.60;99.70;;;;;;5050986;28;20448;-60
2021/12/09 08:04:39;;;;;;;11.50;4.90;;;3.50;99.70;;;;;;5050937;28;20497;-63
2021/12/09 08:07:06;;;;;;;10.63;5.03;;;3.50;99.70;;;;;;5050730;28;20447;-63
2021/12/09 08:09:34;;;;;;;18.30;7.60;;;3.50;99.70;;;;;;5050885;28;20556;-59
2021/12/09 08:12:01;;;;;;;32.70;11.77;;;3.50;99.70;;;;;;5050841;28;20447;-61
2021/12/09 08:14:28;;;;;;;21.80;7.40;;;3.50;99.70;;;;;;5050709;28;20471;-63
2021/12/09 08:17:10;;;;;;;14.87;6.10;;;3.50;99.70;;;;;;5050534;28;20950;-62
2021/12/09 08:19:37;;;;;;;10.97;5.20;;;3.50;99.70;;;;;;5050827;28;20463;-60
2021/12/09 08:22:04;;;;;;;12.03;5.70;;;3.50;99.70;;;;;;5053406;28;20954;-61
2021/12/09 08:24:31;;;;;;;17.70;5.70;;;3.50;99.70;;;;;;5054520;28;20443;-61
2021/12/09 08:26:59;;;;;;;10.57;5.30;;;3.40;99.70;;;;;;5054208;28;20444;-62
2021/12/09 08:29:26;;;;;;;15.27;6.00;;;3.60;99.70;;;;;;5054406;28;20543;-61
2021/12/09 08:31:52;;;;;;;13.67;6.53;;;3.70;99.70;;;;;;5060256;28;20446;-61
2021/12/09 08:34:19;;;;;;;15.73;7.60;;;3.70;99.70;;;;;;5073705;28;20450;-62
2021/12/09 08:36:46;;;;;;;14.10;7.10;;;3.90;99.70;;;;;;5073823;28;20970;-60
2021/12/09 08:39:13;;;;;;;17.93;7.50;;;3.90;99.70;;;;;;5074307;28;20458;-63
2021/12/09 08:41:40;;;;;;;19.07;8.17;;;4.00;99.70;;;;;;5071208;28;20941;-62
2021/12/09 08:44:08;;;;;;;19.63;9.90;;;3.90;99.70;;;;;;5055481;28;20479;-61
2021/12/09 08:46:35;;;;;;;18.73;8.80;;;3.80;99.70;;;;;;5056073;28;20450;-62
2021/12/09 08:49:02;;;;;;;18.77;7.70;;;3.80;99.70;;;;;;5054792;28;20468;-62
2021/12/09 08:51:29;;;;;;;18.93;7.87;;;4.00;99.70;;;;;;5053883;28;20817;-61
2021/12/09 08:53:58;;;;;;;14.37;7.07;;;3.90;99.70;;;;;;5054165;28;20475;-64
2021/12/09 08:56:25;;;;;;;18.70;7.43;;;4.00;99.70;;;;;;5053610;28;20480;-60
2021/12/09 08:58:51;;;;;;;13.07;7.27;;;4.20;99.70;;;;;;5053891;28;20451;-61
2021/12/09 09:01:19;;;;;;;15.67;6.83;;;4.10;99.70;;;;;;5067502;28;20454;-62
2021/12/09 09:03:46;;;;;;;19.37;6.37;;;4.00;99.70;;;;;;5074020;28;20447;-61
2021/12/09 09:06:13;;;;;;;11.40;6.30;;;4.10;99.70;;;;;;5073761;28;20446;-63
2021/12/09 09:08:40;;;;;;;14.90;6.90;;;4.10;99.70;;;;;;5074040;28;20466;-61
2021/12/09 09:11:07;;;;;;;18.83;7.43;;;4.00;99.70;;;;;;5073893;28;20748;-61
2021/12/09 09:13:35;;;;;;;13.20;6.13;;;4.00;99.70;;;;;;5073863;28;20453;-59
2021/12/09 09:16:01;;;;;;;11.03;5.80;;;4.00;99.70;;;;;;5072754;28;20478;-64
2021/12/09 09:18:29;;;;;;;13.17;6.70;;;4.20;99.70;;;;;;5073567;28;20507;-62
2021/12/09 09:20:56;;;;;;;13.43;6.70;;;4.30;99.70;;;;;;5073905;28;20463;-63
2021/12/09 09:23:23;;;;;;;13.47;6.37;;;4.20;99.70;;;;;;5073693;28;20447;-61
2021/12/09 09:25:50;;;;;;;13.00;6.40;;;4.30;99.70;;;;;;5073491;28;20880;-59
2021/12/09 09:28:18;;;;;;;20.60;7.20;;;4.40;99.70;;;;;;5073699;28;20438;-58
2021/12/09 09:30:53;;;;;;;14.70;7.17;;;4.50;99.70;;;;;;5073486;28;20482;-60
2021/12/09 09:33:20;;;;;;;11.27;6.00;;;4.70;99.70;;;;;;5055636;28;20451;-58
2021/12/09 09:35:49;;;;;;;15.50;6.93;;;4.70;99.70;;;;;;5053440;28;20545;-58
2021/12/09 09:38:17;;;;;;;14.40;6.50;;;4.70;99.70;;;;;;5053765;28;20458;-57
2021/12/09 09:40:50;;;;;;;13.10;5.87;;;4.70;99.70;;;;;;5053415;28;20475;-57
2021/12/09 09:43:29;;;;;;;10.90;5.20;;;4.70;99.70;;;;;;5053846;28;20447;-57
2021/12/09 09:45:58;;;;;;;11.87;5.30;;;4.80;99.70;;;;;;5052790;28;20444;-61
2021/12/09 09:48:25;;;;;;;13.83;6.43;;;4.90;99.70;;;;;;5052394;28;20447;-59
2021/12/09 09:50:54;;;;;;;15.30;6.93;;;5.00;99.70;;;;;;5053205;28;20475;-57
2021/12/09 09:53:20;;;;;;;12.83;6.20;;;5.00;99.70;;;;;;5052535;28;20454;-59
2021/12/09 09:55:47;;;;;;;11.53;6.03;;;5.10;99.70;;;;;;5052304;28;20600;-61
2021/12/09 09:58:15;;;;;;;13.73;6.10;;;5.10;99.70;;;;;;5052968;28;20816;-63
2021/12/09 10:00:43;;;;;;;14.50;6.80;;;4.90;99.70;;;;;;5053023;28;20551;-60
2021/12/09 10:03:16;;;;;;;15.73;6.73;;;4.90;99.70;;;;;;5061702;28;20453;-59
2021/12/09 10:05:44;;;;;;;11.20;5.90;;;4.90;99.70;;;;;;5072870;28;20483;-60
2021/12/09 10:08:14;;;;;;;11.00;5.40;;;4.90;99.70;;;;;;5072927;28;20455;-60
2021/12/09 10:10:41;;;;;;;13.43;6.73;;;5.00;99.70;;;;;;5072892;28;20502;-62
2021/12/09 10:13:10;;;;;;;12.47;5.63;;;4.90;99.70;;;;;;5072785;28;20443;-60
2021/12/09 10:15:41;;;;;;;12.40;5.80;;;4.90;99.70;;;;;;5070090;28;20478;-63
2021/12/09 10:18:08;;;;;;;13.93;6.30;;;5.00;99.70;;;;;;5064084;28;20520;-61
2021/12/09 10:20:55;;;;;;;15.57;6.63;;;5.00;99.70;;;;;;5072540;28;20475;-59
2021/12/09 10:23:35;;;;;;;12.00;6.00;;;5.10;99.70;;;;;;5073053;28;20455;-60
2021/12/09 10:26:24;;;;;;;15.47;7.13;;;5.20;99.70;;;;;;5071782;28;20504;-62
2021/12/09 10:28:55;;;;;;;11.07;5.53;;;5.20;99.70;;;;;;5072190;28;20447;-59
2021/12/09 10:31:26;;;;;;;13.23;6.80;;;5.10;99.70;;;;;;5070446;28;20439;-58
2021/12/09 10:34:03;;;;;;;14.77;6.43;;;5.20;99.70;;;;;;5052425;28;20810;-60
2021/12/09 10:37:01;;;;;;;14.00;6.60;;;5.20;99.70;;;;;;5064987;28;20921;-60
2021/12/09 10:39:48;;;;;;;15.37;5.50;;;5.10;99.70;;;;;;5048149;28;20478;-60
2021/12/09 10:42:18;;;;;;;9.70;5.67;;;5.10;99.70;;;;;;5070362;28;20520;-62
2021/12/09 10:44:48;;;;;;;10.70;5.37;;;5.10;99.70;;;;;;5070793;28;20446;-60
2021/12/09 10:47:23;;;;;;;13.33;5.93;;;5.00;99.70;;;;;;5071062;28;20439;-62
2021/12/09 10:50:03;;;;;;;13.43;7.60;;;5.10;99.70;;;;;;5071604;28;20458;-60
2021/12/09 10:52:38;;;;;;;14.67;6.13;;;5.10;99.70;;;;;;5071630;28;20449;-62
2021/12/09 10:55:24;;;;;;;13.03;6.20;;;5.00;99.70;;;;;;5071044;28;20813;-59
2021/12/09 10:58:01;;;;;;;10.27;5.53;;;5.00;99.70;;;;;;5071785;28;20467;-61
2021/12/09 11:00:34;;;;;;;10.17;5.10;;;4.90;99.70;;;;;;5069707;28;20845;-63
2021/12/09 11:03:18;;;;;;;10.33;4.80;;;5.00;99.70;;;;;;5063265;28;20452;-60
2021/12/09 11:05:48;;;;;;;9.57;4.90;;;5.30;99.70;;;;;;5050113;28;20451;-63
2021/12/09 11:08:25;;;;;;;10.50;4.63;;;5.30;99.70;;;;;;5051410;28;20436;-64
2021/12/09 11:11:09;;;;;;;9.80;4.77;;;5.50;99.70;;;;;;5051465;28;20528;-61
2021/12/09 11:13:47;;;;;;;9.70;4.70;;;5.30;99.70;;;;;;5066845;28;20443;-62
2021/12/09 11:16:22;;;;;;;10.33;4.47;;;5.40;99.70;;;;;;5070868;28;21082;-62
2021/12/09 11:18:50;;;;;;;10.70;4.60;;;5.40;99.70;;;;;;5071483;28;20446;-60
2021/12/09 11:21:18;;;;;;;11.43;5.10;;;5.40;99.70;;;;;;5070562;28;20439;-59
2021/12/09 11:23:50;;;;;;;9.43;4.80;;;5.60;99.70;;;;;;5071258;28;20508;-62
2021/12/09 11:26:38;;;;;;;14.37;5.10;;;5.50;99.70;;;;;;5056359;28;20526;-59
2021/12/09 11:29:10;;;;;;;9.23;4.87;;;5.40;99.70;;;;;;5051124;28;20537;-59
2021/12/09 11:31:50;;;;;;;9.90;4.73;;;5.40;99.70;;;;;;5051279;28;20476;-61
2021/12/09 11:34:20;;;;;;;10.80;4.73;;;5.50;99.70;;;;;;5055023;28;20439;-60
2021/12/09 11:36:56;;;;;;;10.33;5.03;;;5.60;99.70;;;;;;5071080;28;20480;-62
2021/12/09 11:39:29;;;;;;;10.00;4.60;;;5.70;99.70;;;;;;5071320;28;20473;-61
2021/12/09 11:42:05;;;;;;;7.37;3.70;;;5.60;99.70;;;;;;5071191;28;20482;-60
2021/12/09 11:44:33;;;;;;;11.70;4.30;;;5.60;99.70;;;;;;5071183;28;20533;-61
2021/12/09 11:47:00;;;;;;;9.93;4.40;;;5.60;99.70;;;;;;5070880;28;20530;-65
2021/12/09 11:49:27;;;;;;;9.90;4.70;;;5.60;99.70;;;;;;5071109;28;20463;-62
2021/12/09 11:51:54;;;;;;;8.50;4.10;;;5.70;99.70;;;;;;5071273;28;20446;-61
2021/12/09 11:54:22;;;;;;;13.87;4.40;;;5.70;99.70;;;;;;5071296;28;20823;-67
2021/12/09 11:57:12;;;;;;;9.73;4.43;;;5.60;99.70;;;;;;5073596;28;20478;-65
2021/12/09 12:11:35;;;;;;;9.20;3.83;;;5.50;99.70;;;;;;5075555;28;20862;-61
2021/12/09 12:14:09;;;;;;;9.33;3.80;;;5.60;99.70;;;;;;5070037;28;20440;-61
2021/12/09 12:16:54;;;;;;;8.33;3.50;;;5.70;99.70;;;;;;5058310;28;20520;-58
2021/12/09 12:20:00;;;;;;;8.30;3.87;;;5.80;99.70;;;;;;5054971;28;20460;-63
2021/12/09 12:26:12;;;;;;;9.53;3.80;;;5.70;99.70;;;;;;5054593;28;20423;-60
2021/12/09 12:29:02;;;;;;;8.80;3.77;;;5.70;99.70;;;;;;5055025;28;20435;-61
2021/12/09 12:34:59;;;;;;;10.10;3.80;;;5.90;99.70;;;;;;5054320;28;20929;-57
2021/12/09 12:37:53;;;;;;;9.63;4.00;;;5.80;99.70;;;;;;5070047;28;20837;-59
2021/12/09 12:40:22;;;;;;;11.10;4.33;;;5.80;99.70;;;;;;5074531;28;20537;-59
2021/12/09 12:42:56;;;;;;;7.33;3.87;;;5.90;99.70;;;;;;5074261;28;20457;-57
2021/12/09 12:45:43;;;;;;;5.83;3.37;;;6.00;99.70;;;;;;5073741;28;20488;-62
2021/12/09 12:48:42;;;;;;;8.50;4.10;;;6.10;99.70;;;;;;5073769;28;20450;-62
2021/12/09 12:51:14;;;;;;;11.60;4.03;;;6.10;99.70;;;;;;5074094;28;20442;-59
2021/12/09 12:53:43;;;;;;;9.00;4.00;;;6.00;99.70;;;;;;5074188;28;20449;-63
2021/12/09 12:56:12;;;;;;;10.50;3.83;;;5.90;99.70;;;;;;5072476;28;20475;-59
2021/12/09 12:58:39;;;;;;;8.60;3.70;;;5.90;99.70;;;;;;5074036;28;20849;-61
2021/12/09 13:01:24;;;;;;;10.13;3.90;;;5.90;99.70;;;;;;5074158;28;20474;-58
2021/12/09 13:03:56;;;;;;;12.50;4.03;;;6.00;99.70;;;;;;5073969;28;20477;-60
2021/12/09 13:06:42;;;;;;;8.97;4.27;;;6.20;99.70;;;;;;5072307;28;20530;-62
2021/12/09 13:09:25;;;;;;;10.30;4.00;;;6.20;99.70;;;;;;5074099;28;20462;-62
2021/12/09 13:11:58;;;;;;;8.47;3.97;;;6.10;99.70;;;;;;5074084;28;20443;-65
2021/12/09 13:14:28;;;;;;;9.07;3.80;;;6.10;99.70;;;;;;5074035;28;20451;-58
2021/12/09 13:17:04;;;;;;;5.67;3.07;;;6.00;99.70;;;;;;5057173;28;20579;-60
2021/12/09 13:19:50;;;;;;;5.80;2.93;;;6.00;99.70;;;;;;5054047;28;20825;-61
2021/12/09 13:22:24;;;;;;;5.43;2.63;;;6.00;99.70;;;;;;5053886;28;20448;-58
2021/12/09 13:24:55;;;;;;;9.13;3.00;;;6.00;99.70;;;;;;5053817;28;20531;-60
2021/12/09 13:27:34;;;;;;;4.77;2.80;;;6.10;99.70;;;;;;5058543;28;20432;-59
2021/12/09 13:30:17;;;;;;;7.10;3.07;;;6.10;99.70;;;;;;5054789;28;20632;-60
2021/12/09 13:33:04;;;;;;;7.27;3.07;;;6.30;99.70;;;;;;5053440;28;20517;-63
2021/12/09 13:35:51;;;;;;;7.53;2.90;;;6.20;99.70;;;;;;5057900;28;20481;-64
2021/12/09 13:38:40;;;;;;;9.97;3.80;;;6.00;99.70;;;;;;5054870;28;20427;-62
2021/12/09 13:46:49;;;;;;;8.77;3.30;;;5.70;99.70;;;;;;5029664;28;20923;-62
2021/12/09 13:49:27;;;;;;;17.07;5.50;;;5.80;99.70;;;;;;5067794;28;20478;-60
2021/12/09 13:54:04;;;;;;;11.67;4.33;;;5.80;99.70;;;;;;5064423;28;20445;-62
2021/12/09 13:54:54;;;;;;;8.97;3.37;;;5.80;99.70;;;;;;5072258;28;20500;-64
2021/12/09 13:57:30;;;;;;;13.73;5.30;;;5.60;99.70;;;;;;5070748;28;20925;-63
2021/12/09 13:59:57;;;;;;;14.00;5.17;;;5.50;99.70;;;;;;5072242;28;20463;-64
2021/12/09 14:02:26;;;;;;;12.07;5.00;;;5.60;99.70;;;;;;5067672;28;20451;-60
2021/12/09 14:04:53;;;;;;;11.70;5.43;;;5.40;99.70;;;;;;5052246;28;20943;-62
2021/12/09 14:07:30;;;;;;;17.17;5.73;;;5.20;99.70;;;;;;5051766;28;20949;-61
2021/12/09 14:09:58;;;;;;;10.80;5.27;;;5.20;99.70;;;;;;5052596;28;20563;-62
2021/12/09 14:12:29;;;;;;;16.33;5.43;;;5.30;99.70;;;;;;5052623;28;20452;-61
2021/12/09 14:15:04;;;;;;;14.40;6.57;;;5.00;99.70;;;;;;5070224;28;20598;-60
2021/12/09 14:17:31;;;;;;;13.20;6.17;;;5.00;99.70;;;;;;5070654;28;20564;-60
2021/12/09 14:20:02;;;;;;;17.43;6.60;;;4.90;99.70;;;;;;5051683;28;20467;-60
2021/12/09 14:22:32;;;;;;;16.40;6.83;;;4.80;99.70;;;;;;5052037;28;20483;-64
2021/12/09 14:25:03;;;;;;;26.50;6.80;;;4.70;99.70;;;;;;5051930;28;20448;-62
2021/12/09 14:27:30;;;;;;;17.13;6.07;;;4.60;99.70;;;;;;5053235;28;20884;-63
2021/12/09 14:29:58;;;;;;;24.07;7.57;;;4.60;99.70;;;;;;5051947;28;20471;-64
2021/12/09 14:32:28;;;;;;;19.40;6.60;;;4.50;99.70;;;;;;5052024;28;20957;-61
2021/12/09 14:34:56;;;;;;;15.10;6.53;;;4.90;99.70;;;;;;5063213;28;20475;-62
2021/12/09 14:37:23;;;;;;;20.57;7.10;;;4.60;99.70;;;;;;5056492;28;20475;-63
2021/12/09 14:40:01;;;;;;;13.97;6.40;;;4.50;99.70;;;;;;5052134;28;20464;-60
2021/12/09 14:42:29;;;;;;;16.70;6.47;;;4.40;99.70;;;;;;5052215;28;20456;-59
2021/12/09 14:44:58;;;;;;;15.07;7.20;;;4.40;99.70;;;;;;5051928;28;20479;-59
2021/12/09 14:47:25;;;;;;;11.63;6.00;;;4.30;99.70;;;;;;5052352;28;20440;-61
2021/12/09 14:49:55;;;;;;;20.70;7.03;;;4.20;99.70;;;;;;5053256;28;20464;-61
2021/12/09 14:52:31;;;;;;;20.10;6.70;;;4.30;99.70;;;;;;5051932;28;20452;-63
2021/12/09 14:55:14;;;;;;;15.53;6.30;;;4.30;99.70;;;;;;5051817;28;20972;-61
2021/12/09 14:57:55;;;;;;;15.67;6.97;;;4.20;99.70;;;;;;5052446;28;20492;-61
2021/12/09 15:00:30;;;;;;;20.30;7.90;;;4.30;99.70;;;;;;5051808;28;20471;-61
2021/12/09 15:02:57;;;;;;;13.90;7.27;;;4.30;99.70;;;;;;5051505;28;20883;-62
2021/12/09 15:05:24;;;;;;;16.23;6.60;;;4.40;99.70;;;;;;5064323;28;20442;-61
2021/12/09 15:07:53;;;;;;;19.33;6.30;;;4.40;99.70;;;;;;5070119;28;20453;-62
2021/12/09 15:10:24;;;;;;;16.53;6.80;;;4.50;99.70;;;;;;5071680;28;20506;-60
2021/12/09 15:12:51;;;;;;;13.80;5.40;;;4.60;99.70;;;;;;5071679;28;20809;-61
2021/12/09 15:15:20;;;;;;;15.87;5.37;;;4.60;99.70;;;;;;5071450;28;20516;-61
2021/12/09 15:17:53;;;;;;;12.43;4.23;;;4.80;99.70;;;;;;5071015;28;20479;-60
2021/12/09 15:20:20;;;;;;;11.03;4.03;;;5.00;99.70;;;;;;5071615;28;20529;-61
2021/12/09 15:22:56;;;;;;;12.50;4.87;;;5.10;99.70;;;;;;5071548;28;20515;-58
2021/12/09 15:25:32;;;;;;;10.40;5.07;;;4.90;99.70;;;;;;5051055;28;20447;-58
2021/12/09 15:28:01;;;;;;;18.17;6.70;;;4.80;99.70;;;;;;5051408;28;20443;-59
2021/12/09 15:30:45;;;;;;;12.33;5.50;;;4.80;99.70;;;;;;5055449;28;20860;-57
2021/12/09 15:33:15;;;;;;;16.10;5.13;;;4.60;99.70;;;;;;5068692;28;20811;-57
2021/12/09 15:35:43;;;;;;;12.23;5.27;;;4.50;99.70;;;;;;5073632;28;20557;-60
2021/12/09 15:38:20;;;;;;;10.43;3.53;;;4.60;99.70;;;;;;5073140;28;20856;-59
2021/12/09 15:40:48;;;;;;;7.97;3.60;;;4.40;99.70;;;;;;5065874;28;20463;-61
2021/12/09 15:43:17;;;;;;;11.87;4.13;;;4.30;99.70;;;;;;5074748;28;20461;-61
2021/12/09 15:45:53;;;;;;;10.67;4.63;;;4.20;99.70;;;;;;5077434;28;20439;-62
2021/12/09 15:48:21;;;;;;;10.40;4.30;;;4.00;99.70;;;;;;5073629;28;20936;-60
2021/12/09 15:50:55;;;;;;;10.43;4.60;;;3.90;99.70;;;;;;5069667;28;20463;-63
2021/12/09 15:53:22;;;;;;;12.80;5.30;;;4.00;99.70;;;;;;5068502;28;20442;-62
2021/12/09 15:55:51;;;;;;;17.00;4.57;;;4.00;99.70;;;;;;5066221;28;20934;-60
2021/12/09 15:58:21;;;;;;;13.13;3.73;;;4.00;99.70;;;;;;5070723;28;20478;-61
2021/12/09 16:00:50;;;;;;;8.83;3.63;;;4.20;99.70;;;;;;5066780;28;20475;-58
2021/12/09 16:03:17;;;;;;;10.63;3.80;;;4.20;99.70;;;;;;5062950;28;20451;-63
2021/12/09 16:05:43;;;;;;;7.97;3.57;;;4.30;99.70;;;;;;5071227;28;20455;-61
2021/12/09 16:08:10;;;;;;;10.60;3.40;;;4.30;99.70;;;;;;5066948;28;20439;-63
2021/12/09 16:10:37;;;;;;;6.53;3.20;;;4.30;99.70;;;;;;5062902;28;20853;-60
2021/12/09 16:13:05;;;;;;;11.17;3.77;;;4.40;99.70;;;;;;5064947;28;20455;-60
2021/12/09 16:15:44;;;;;;;9.47;3.30;;;4.30;99.70;;;;;;5065887;28;20462;-61
2021/12/09 16:18:11;;;;;;;14.40;4.03;;;4.40;99.70;;;;;;5072673;28;20482;-63
2021/12/09 16:20:54;;;;;;;7.80;3.70;;;4.60;99.70;;;;;;5071504;28;20470;-57
2021/12/09 16:23:21;;;;;;;9.57;3.53;;;4.60;99.70;;;;;;5072093;28;20478;-62
2021/12/09 16:25:48;;;;;;;9.53;4.10;;;4.50;99.70;;;;;;5071638;28;20451;-62
2021/12/09 16:28:17;;;;;;;9.93;3.93;;;4.40;99.70;;;;;;5074476;28;20450;-60
2021/12/09 16:30:43;;;;;;;9.07;4.63;;;4.50;99.70;;;;;;5069238;28;20475;-63
2021/12/09 16:33:10;;;;;;;13.03;3.50;;;4.40;99.70;;;;;;5067578;28;20470;-62
2021/12/09 16:35:38;;;;;;;17.40;3.90;;;4.60;99.70;;;;;;5071307;28;20458;-62
2021/12/09 16:38:06;;;;;;;11.07;3.93;;;4.50;99.70;;;;;;5074046;28;20846;-62
2021/12/09 16:40:36;;;;;;;12.07;3.87;;;4.60;99.70;;;;;;5066304;28;20486;-61
2021/12/09 16:43:05;;;;;;;11.43;3.43;;;4.60;99.70;;;;;;5060189;28;20465;-63
2021/12/09 16:45:35;;;;;;;11.50;3.83;;;4.50;99.70;;;;;;5059553;28;20455;-65
2021/12/09 16:48:04;;;;;;;11.70;4.10;;;4.60;99.70;;;;;;5071020;28;20758;-61
2021/12/09 16:50:36;;;;;;;9.30;3.57;;;4.40;99.70;;;;;;5058267;28;20992;-64
2021/12/09 16:53:09;;;;;;;6.80;3.47;;;4.40;99.70;;;;;;5065879;28;20496;-63
2021/12/09 16:55:39;;;;;;;7.43;3.60;;;4.30;99.70;;;;;;5071499;28;20447;-63
2021/12/09 16:58:06;;;;;;;10.20;3.77;;;4.30;99.70;;;;;;5067703;28;20479;-62
2021/12/09 17:00:39;;;;;;;13.60;4.00;;;4.20;99.70;;;;;;5055188;28;20737;-62
2021/12/09 17:03:06;;;;;;;10.20;3.90;;;4.30;99.70;;;;;;5069706;28;20450;-61
2021/12/09 17:05:33;;;;;;;9.40;4.10;;;4.20;99.70;;;;;;5073391;28;20449;-60
2021/12/09 17:08:00;;;;;;;15.17;4.57;;;4.20;99.70;;;;;;5072960;28;20822;-58
2021/12/09 17:10:31;;;;;;;12.63;4.50;;;4.30;99.70;;;;;;5071602;28;20474;-62
2021/12/09 17:12:58;;;;;;;12.90;3.90;;;4.50;99.70;;;;;;5073417;28;20443;-61
2021/12/09 17:15:26;;;;;;;12.10;3.63;;;4.50;99.70;;;;;;5054308;28;20824;-62
2021/12/09 17:17:56;;;;;;;9.20;3.97;;;4.50;99.70;;;;;;5054776;28;20480;-61
2021/12/09 17:20:24;;;;;;;14.77;4.20;;;4.60;99.70;;;;;;5067456;28;20483;-59
2021/12/09 17:22:52;;;;;;;21.27;5.67;;;4.60;99.70;;;;;;5059087;28;20447;-63
2021/12/09 17:25:23;;;;;;;12.77;4.17;;;4.50;99.70;;;;;;5073041;28;20447;-63
2021/12/09 17:27:52;;;;;;;9.20;4.30;;;4.50;99.70;;;;;;5072254;28;20497;-61
2021/12/09 17:30:19;;;;;;;14.37;4.83;;;4.50;99.70;;;;;;5072855;28;20466;-63
2021/12/09 17:32:47;;;;;;;11.03;4.30;;;4.50;99.70;;;;;;5072879;28;20453;-63
2021/12/09 17:35:17;;;;;;;11.87;4.20;;;4.40;99.70;;;;;;5072826;28;20462;-62
2021/12/09 17:37:46;;;;;;;12.13;4.27;;;4.50;99.70;;;;;;5072180;28;20483;-65
2021/12/09 17:40:14;;;;;;;11.37;4.50;;;4.50;99.70;;;;;;5063493;28;20471;-61
2021/12/09 17:42:42;;;;;;;11.10;4.03;;;4.40;99.70;;;;;;5059278;28;20877;-60
2021/12/09 17:45:12;;;;;;;15.80;4.80;;;4.40;99.70;;;;;;5072080;28;20949;-61
2021/12/09 17:47:39;;;;;;;11.23;4.47;;;4.50;99.70;;;;;;5068977;28;20631;-63
2021/12/09 17:50:06;;;;;;;13.43;4.60;;;4.50;99.70;;;;;;5068617;28;20470;-58
2021/12/09 17:52:40;;;;;;;15.73;4.87;;;4.60;99.70;;;;;;5064117;28;20439;-60
2021/12/09 17:55:07;;;;;;;11.63;3.73;;;4.80;99.70;;;;;;5071287;28;20515;-58
2021/12/09 17:57:34;;;;;;;17.63;4.50;;;4.70;99.70;;;;;;5062464;28;20484;-61
2021/12/09 18:00:01;;;;;;;9.90;4.53;;;4.60;99.70;;;;;;5067571;28;20458;-59
2021/12/09 18:02:27;;;;;;;10.90;4.17;;;4.70;99.70;;;;;;5073298;28;20443;-61
2021/12/09 18:04:54;;;;;;;9.90;3.90;;;4.50;99.70;;;;;;5071921;28;20455;-60
2021/12/09 18:07:21;;;;;;;11.77;4.50;;;4.60;99.70;;;;;;5072622;28;20451;-58
2021/12/09 18:09:49;;;;;;;8.60;3.80;;;4.60;99.70;;;;;;5071251;28;20484;-60
2021/12/09 18:12:18;;;;;;;16.10;3.70;;;4.70;99.70;;;;;;5072474;28;20454;-61
2021/12/09 18:14:46;;;;;;;11.57;3.70;;;4.80;99.70;;;;;;5072293;28;20447;-61
2021/12/09 18:17:14;;;;;;;10.67;4.00;;;4.60;99.70;;;;;;5071441;28;20446;-61
2021/12/09 18:19:42;;;;;;;6.43;3.20;;;4.60;99.70;;;;;;5061125;28;20472;-59
2021/12/09 18:22:10;;;;;;;6.60;3.60;;;4.60;99.70;;;;;;5071706;28;20439;-59
2021/12/09 18:24:38;;;;;;;11.20;3.83;;;4.30;99.70;;;;;;5059661;28;20435;-57
2021/12/09 18:27:07;;;;;;;10.30;3.47;;;4.20;99.70;;;;;;5072395;28;20687;-59
2021/12/09 18:29:34;;;;;;;9.77;3.70;;;4.40;99.70;;;;;;5071400;28;20547;-58
2021/12/09 18:32:03;;;;;;;10.90;3.77;;;4.40;99.70;;;;;;5072319;28;20492;-59